Time;durP1;ratioP1;P1;durP2;ratioP2;P2;SDS_P1;SDS_P2;PMS_P1;PMS_P2;Temp;Humidity;BMP_temperature;BMP_pressure;BME280_temperature;BME280_humidity;BME280_pressure;Samples;Min_cycle;Max_cycle;Signal;HPM_P1;HPM_P2
2023/05/07 00:02:22;;;;;;;30.48;23.05;;;11.00;99.90;;;;;;5022864;28;20496;-51
2023/05/07 00:04:48;;;;;;;31.83;25.52;;;10.90;99.90;;;;;;5023684;28;20041;-51
2023/05/07 00:07:14;;;;;;;29.23;25.13;;;10.90;99.90;;;;;;5023544;28;20086;-52
2023/05/07 00:09:40;;;;;;;33.22;25.48;;;10.90;99.90;;;;;;5022428;28;20072;-50
2023/05/07 00:12:06;;;;;;;33.42;25.35;;;10.90;99.90;;;;;;5022969;28;20104;-58
2023/05/07 00:14:32;;;;;;;32.95;24.92;;;10.90;99.90;;;;;;5022919;28;20041;-57
2023/05/07 00:16:58;;;;;;;32.05;24.92;;;11.00;99.90;;;;;;5021750;28;20090;-57
2023/05/07 00:19:23;;;;;;;33.83;25.75;;;10.90;99.90;;;;;;5022904;28;20129;-56
2023/05/07 00:21:49;;;;;;;31.42;24.65;;;11.00;99.90;;;;;;5023099;28;20235;-56
2023/05/07 00:24:15;;;;;;;31.10;24.92;;;11.00;99.90;;;;;;5023474;28;20041;-54
2023/05/07 00:26:40;;;;;;;33.65;27.25;;;11.00;99.90;;;;;;5022980;28;20042;-58
2023/05/07 00:29:06;;;;;;;34.78;28.08;;;11.00;99.90;;;;;;5022946;28;20037;-57
2023/05/07 00:31:32;;;;;;;37.47;29.08;;;11.00;99.90;;;;;;5004445;28;20049;-57
2023/05/07 00:33:57;;;;;;;35.30;27.23;;;11.00;99.90;;;;;;5022116;28;20267;-57
2023/05/07 00:36:23;;;;;;;35.15;28.00;;;11.00;99.90;;;;;;5022683;28;20030;-54
2023/05/07 00:38:48;;;;;;;38.85;29.05;;;11.00;99.90;;;;;;5005140;28;20053;-53
2023/05/07 00:41:15;;;;;;;36.42;29.25;;;11.00;99.90;;;;;;5022392;28;20049;-52
2023/05/07 00:43:40;;;;;;;36.60;30.38;;;11.00;99.90;;;;;;5022289;28;20057;-52
2023/05/07 00:46:06;;;;;;;37.13;30.27;;;11.00;99.90;;;;;;5004033;28;20042;-56
2023/05/07 00:48:32;;;;;;;37.72;30.83;;;11.10;99.90;;;;;;5004687;28;20089;-58
2023/05/07 00:50:58;;;;;;;38.03;29.27;;;11.10;99.90;;;;;;5022287;28;20060;-60
2023/05/07 00:53:24;;;;;;;37.42;31.95;;;11.10;99.90;;;;;;5021752;28;20033;-56
2023/05/07 00:55:50;;;;;;;39.45;31.88;;;11.10;99.90;;;;;;5022233;28;20433;-53
2023/05/07 00:58:16;;;;;;;40.38;33.25;;;11.10;99.90;;;;;;5004398;28;20132;-54
2023/05/07 01:00:42;;;;;;;39.03;31.08;;;11.10;99.90;;;;;;5004122;28;20050;-52
2023/05/07 01:03:08;;;;;;;39.03;33.70;;;11.10;99.90;;;;;;5022090;28;20044;-56
2023/05/07 01:05:34;;;;;;;40.72;35.05;;;11.10;99.90;;;;;;5004177;28;20038;-53
2023/05/07 01:08:01;;;;;;;40.60;34.08;;;11.20;99.90;;;;;;5021274;28;20416;-58
2023/05/07 01:10:30;;;;;;;43.40;34.97;;;11.10;99.90;;;;;;5021658;28;20052;-57
2023/05/07 01:12:58;;;;;;;47.28;36.05;;;11.20;99.90;;;;;;5021769;28;20401;-58
2023/05/07 01:15:24;;;;;;;45.25;35.45;;;11.10;99.90;;;;;;5101032;22;20064;-57
2023/05/07 01:17:50;;;;;;;45.30;35.65;;;11.20;99.90;;;;;;5044425;28;20594;-58
2023/05/07 01:20:15;;;;;;;43.78;36.25;;;11.10;99.90;;;;;;5044415;28;20068;-56
2023/05/07 01:22:43;;;;;;;48.00;36.85;;;11.20;99.90;;;;;;5044350;28;20051;-55
2023/05/07 01:25:09;;;;;;;45.00;34.92;;;11.20;99.90;;;;;;5044825;28;20080;-51
2023/05/07 01:27:36;;;;;;;44.47;37.05;;;11.20;99.90;;;;;;5045041;28;20045;-54
2023/05/07 01:30:02;;;;;;;44.90;34.08;;;11.10;99.90;;;;;;5043864;28;20408;-51
2023/05/07 01:32:39;;;;;;;41.42;34.88;;;11.10;99.90;;;;;;5043743;28;20075;-51
2023/05/07 01:35:09;;;;;;;45.25;34.45;;;11.10;99.90;;;;;;5044428;28;20044;-58
2023/05/07 01:37:35;;;;;;;41.58;33.17;;;11.10;99.90;;;;;;5043196;28;20049;-48
2023/05/07 01:40:03;;;;;;;40.88;32.88;;;11.10;99.90;;;;;;5044144;28;20693;-59
2023/05/07 01:42:29;;;;;;;38.15;31.17;;;11.10;99.90;;;;;;5044374;28;20083;-58
2023/05/07 01:44:55;;;;;;;39.90;31.20;;;11.10;99.90;;;;;;5044486;28;20084;-59
2023/05/07 01:47:22;;;;;;;40.92;30.27;;;11.10;99.90;;;;;;5043840;28;20108;-54
2023/05/07 01:49:47;;;;;;;38.70;30.25;;;11.10;99.90;;;;;;5044025;28;20047;-52
2023/05/07 01:52:13;;;;;;;39.78;29.80;;;11.00;99.90;;;;;;5044113;28;20123;-54
2023/05/07 01:54:39;;;;;;;40.20;30.70;;;11.00;99.90;;;;;;5043595;28;20075;-56
2023/05/07 01:57:04;;;;;;;37.20;30.08;;;11.00;99.90;;;;;;5044021;28;20088;-60
2023/05/07 01:59:30;;;;;;;38.08;30.58;;;10.90;99.90;;;;;;5044514;28;20041;-55
2023/05/07 02:01:56;;;;;;;40.45;30.77;;;11.00;99.90;;;;;;5043485;28;20080;-57
2023/05/07 02:04:21;;;;;;;38.00;31.15;;;11.00;99.90;;;;;;5043452;28;20538;-53
2023/05/07 02:06:47;;;;;;;40.08;30.85;;;10.90;99.90;;;;;;5043579;28;20091;-55
2023/05/07 02:09:14;;;;;;;43.67;32.25;;;10.90;99.90;;;;;;5042875;28;20044;-54
2023/05/07 02:11:40;;;;;;;40.47;31.40;;;10.90;99.90;;;;;;5043607;28;20461;-57
2023/05/07 02:14:06;;;;;;;43.85;33.88;;;10.90;99.90;;;;;;5043984;28;20045;-59
2023/05/07 02:16:31;;;;;;;43.55;33.80;;;10.90;99.90;;;;;;5043167;28;20079;-59
2023/05/07 02:18:58;;;;;;;38.90;28.17;;;10.90;99.90;;;;;;5042668;28;20055;-60
2023/05/07 02:21:25;;;;;;;34.03;25.95;;;10.90;99.90;;;;;;5042952;28;20079;-58
2023/05/07 02:23:50;;;;;;;36.05;28.60;;;10.80;99.90;;;;;;5043432;28;20512;-53
2023/05/07 02:26:16;;;;;;;36.00;28.88;;;10.80;99.90;;;;;;5043104;28;20080;-52
2023/05/07 02:28:42;;;;;;;35.42;27.25;;;10.80;99.90;;;;;;5043162;28;20056;-51
2023/05/07 02:31:07;;;;;;;38.00;29.58;;;10.70;99.90;;;;;;5043150;28;20044;-50
2023/05/07 02:33:34;;;;;;;37.92;29.45;;;10.70;99.90;;;;;;5043502;28;20041;-57
2023/05/07 02:36:07;;;;;;;35.22;28.27;;;10.80;99.90;;;;;;5042549;28;20053;-56
2023/05/07 02:38:34;;;;;;;36.30;28.75;;;10.70;99.90;;;;;;5043283;28;20049;-50
2023/05/07 02:41:00;;;;;;;42.08;31.30;;;10.60;99.90;;;;;;5042786;28;20048;-55
2023/05/07 02:43:25;;;;;;;39.22;30.85;;;10.60;99.90;;;;;;5042432;28;20045;-54
2023/05/07 02:46:07;;;;;;;38.58;30.45;;;10.60;99.90;;;;;;5040955;28;20045;-57
2023/05/07 02:48:34;;;;;;;42.25;31.40;;;10.60;99.90;;;;;;5043301;28;20037;-55
2023/05/07 02:51:00;;;;;;;42.05;31.95;;;10.60;99.90;;;;;;5043329;28;20045;-57
2023/05/07 02:53:27;;;;;;;43.10;31.80;;;10.60;99.90;;;;;;5043878;28;20086;-60
2023/05/07 02:55:57;;;;;;;45.88;34.50;;;10.70;99.90;;;;;;5043953;28;20683;-55
2023/05/07 02:58:23;;;;;;;48.05;36.92;;;10.60;99.90;;;;;;5042622;28;20037;-58
2023/05/07 03:00:49;;;;;;;51.38;38.10;;;10.50;99.90;;;;;;5042495;28;20049;-55
2023/05/07 03:03:15;;;;;;;54.03;37.03;;;10.50;99.90;;;;;;5043292;28;20036;-51
2023/05/07 03:05:41;;;;;;;44.08;34.80;;;10.50;99.90;;;;;;5042311;28;20056;-55
2023/05/07 03:08:07;;;;;;;41.60;32.67;;;10.50;99.90;;;;;;5041075;28;20697;-54
2023/05/07 03:10:33;;;;;;;40.85;32.47;;;10.40;99.90;;;;;;5043614;28;20116;-54
2023/05/07 03:12:59;;;;;;;39.85;31.95;;;10.40;99.90;;;;;;5043613;28;20490;-56
2023/05/07 03:15:24;;;;;;;39.05;31.77;;;10.50;99.90;;;;;;5042262;28;20045;-59
2023/05/07 03:17:50;;;;;;;41.45;31.95;;;10.40;99.90;;;;;;5044807;28;20099;-57
2023/05/07 03:20:16;;;;;;;37.55;30.38;;;10.40;99.90;;;;;;5046763;28;20036;-57
2023/05/07 03:22:42;;;;;;;39.53;30.48;;;10.40;99.90;;;;;;5047390;28;20049;-51
2023/05/07 03:25:10;;;;;;;35.92;29.73;;;10.40;99.90;;;;;;5044958;28;20064;-48
2023/05/07 03:27:35;;;;;;;37.22;29.95;;;10.40;99.90;;;;;;5047358;28;20045;-55
2023/05/07 03:30:01;;;;;;;37.05;29.10;;;10.40;99.90;;;;;;5047288;28;20835;-51
2023/05/07 03:32:27;;;;;;;39.00;28.60;;;10.30;99.90;;;;;;5045501;28;20045;-58
2023/05/07 03:34:52;;;;;;;34.22;28.13;;;10.30;99.90;;;;;;5046055;28;20132;-53
2023/05/07 03:37:18;;;;;;;37.85;29.25;;;10.30;99.90;;;;;;5046689;28;20518;-58
2023/05/07 03:39:44;;;;;;;35.67;28.90;;;10.30;99.90;;;;;;5046069;28;20511;-55
2023/05/07 03:42:10;;;;;;;37.38;30.13;;;10.40;99.90;;;;;;5047191;28;20048;-54
2023/05/07 03:44:36;;;;;;;35.58;28.23;;;10.30;99.90;;;;;;5047039;28;20041;-51
2023/05/07 03:47:02;;;;;;;34.17;28.27;;;10.30;99.90;;;;;;5045831;28;20190;-53
2023/05/07 03:49:28;;;;;;;33.75;27.75;;;10.30;99.90;;;;;;5046720;28;20056;-57
2023/05/07 03:51:53;;;;;;;34.28;27.65;;;10.40;99.90;;;;;;5046841;28;20504;-57
2023/05/07 03:54:19;;;;;;;34.45;27.02;;;10.30;99.90;;;;;;5046593;28;20179;-59
2023/05/07 03:56:45;;;;;;;32.33;27.20;;;10.20;99.90;;;;;;5046628;28;20041;-56
2023/05/07 03:59:11;;;;;;;33.63;28.77;;;10.30;99.90;;;;;;5046475;28;20833;-56
2023/05/07 04:01:37;;;;;;;33.15;26.77;;;10.30;99.90;;;;;;5045522;28;20053;-53
2023/05/07 04:04:04;;;;;;;34.13;28.63;;;10.20;99.90;;;;;;5046166;28;20040;-53
2023/05/07 04:06:30;;;;;;;38.97;29.88;;;10.20;99.90;;;;;;5046397;28;20075;-58
2023/05/07 04:08:55;;;;;;;39.70;30.75;;;10.20;99.90;;;;;;5045904;28;20079;-55
2023/05/07 04:11:21;;;;;;;40.50;32.47;;;10.20;99.90;;;;;;5045292;28;20057;-58
2023/05/07 04:13:47;;;;;;;42.80;35.47;;;10.20;99.90;;;;;;5044266;28;20127;-56
2023/05/07 04:16:13;;;;;;;47.72;36.65;;;10.20;99.90;;;;;;5044170;28;20045;-57
2023/05/07 04:18:38;;;;;;;47.03;38.67;;;10.20;99.90;;;;;;5045156;28;20047;-54
2023/05/07 04:21:05;;;;;;;50.42;41.03;;;10.20;99.90;;;;;;5045354;28;20049;-50
2023/05/07 04:23:31;;;;;;;53.05;41.20;;;10.20;99.90;;;;;;5045045;28;20037;-57
2023/05/07 04:25:57;;;;;;;50.42;38.72;;;10.20;99.90;;;;;;5046276;28;20059;-58
2023/05/07 04:28:23;;;;;;;48.30;38.55;;;10.20;99.90;;;;;;5046316;28;20049;-59
2023/05/07 04:30:49;;;;;;;41.10;33.53;;;10.30;99.90;;;;;;5044733;28;20095;-48
2023/05/07 04:33:17;;;;;;;46.08;35.95;;;10.30;99.90;;;;;;5046653;28;20045;-56
2023/05/07 04:35:43;;;;;;;47.30;38.03;;;10.20;99.90;;;;;;5045029;28;20446;-58
2023/05/07 04:38:09;;;;;;;53.13;41.83;;;10.20;99.90;;;;;;5045663;28;20071;-54
2023/05/07 04:40:36;;;;;;;57.28;45.83;;;10.20;99.90;;;;;;5045686;28;20045;-56
2023/05/07 04:43:02;;;;;;;56.70;46.22;;;10.20;99.90;;;;;;5045912;28;20033;-54
2023/05/07 04:45:27;;;;;;;59.83;47.00;;;10.20;99.90;;;;;;5044246;28;20400;-53
2023/05/07 04:47:53;;;;;;;63.03;48.88;;;10.20;99.90;;;;;;5044505;28;20937;-49
2023/05/07 04:50:19;;;;;;;57.25;46.13;;;10.20;99.90;;;;;;5045599;28;20503;-59
2023/05/07 04:52:45;;;;;;;58.22;46.47;;;10.10;99.90;;;;;;5045777;28;20037;-53
2023/05/07 04:55:11;;;;;;;50.38;41.53;;;10.20;99.90;;;;;;5044296;28;20549;-59
2023/05/07 04:57:39;;;;;;;52.50;41.08;;;10.10;99.90;;;;;;5045421;28;20041;-59
2023/05/07 05:00:08;;;;;;;47.33;37.47;;;10.10;99.90;;;;;;5044875;28;20044;-54
2023/05/07 05:02:34;;;;;;;51.63;41.72;;;10.10;99.90;;;;;;5045801;28;20476;-56
2023/05/07 05:05:01;;;;;;;51.65;43.13;;;10.10;99.90;;;;;;5045164;28;20136;-56
2023/05/07 05:07:26;;;;;;;55.33;44.50;;;10.10;99.90;;;;;;5044716;28;20058;-57
2023/05/07 05:09:52;;;;;;;51.63;36.58;;;10.10;99.90;;;;;;5045859;28;20044;-58
2023/05/07 05:12:18;;;;;;;47.47;39.38;;;10.10;99.90;;;;;;5044558;28;20431;-54
2023/05/07 05:14:43;;;;;;;45.25;38.00;;;10.10;99.90;;;;;;5044154;28;20510;-57
2023/05/07 05:17:09;;;;;;;45.25;37.60;;;10.10;99.90;;;;;;5043995;28;20084;-59
2023/05/07 05:19:35;;;;;;;44.35;36.20;;;10.10;99.90;;;;;;5045017;28;20072;-53
2023/05/07 05:22:01;;;;;;;46.47;34.60;;;10.10;99.90;;;;;;5045190;28;20041;-60
2023/05/07 05:24:26;;;;;;;44.90;36.95;;;10.10;99.90;;;;;;5044931;28;20403;-50
2023/05/07 05:26:53;;;;;;;48.55;38.35;;;10.10;99.90;;;;;;5044923;28;20049;-53
2023/05/07 05:29:19;;;;;;;43.35;34.13;;;10.10;99.90;;;;;;5045360;28;20041;-51
2023/05/07 05:31:45;;;;;;;41.33;34.35;;;10.10;99.90;;;;;;5044436;28;20056;-57
2023/05/07 05:34:10;;;;;;;40.45;33.85;;;10.00;99.90;;;;;;5045577;28;20385;-57
2023/05/07 05:36:36;;;;;;;37.30;31.17;;;10.10;99.90;;;;;;5044903;28;20045;-55
2023/05/07 05:39:01;;;;;;;35.67;30.55;;;10.10;99.90;;;;;;5045076;28;20399;-57
2023/05/07 05:41:27;;;;;;;35.50;30.15;;;10.10;99.90;;;;;;5044191;28;20392;-56
2023/05/07 05:43:53;;;;;;;33.63;29.33;;;10.20;99.90;;;;;;5044545;28;20407;-53
2023/05/07 05:46:19;;;;;;;34.55;27.58;;;10.10;99.90;;;;;;5043854;28;20472;-54
2023/05/07 05:48:44;;;;;;;33.50;25.50;;;10.10;99.90;;;;;;5043507;28;20045;-48
2023/05/07 05:51:10;;;;;;;31.60;24.95;;;10.20;99.90;;;;;;5044844;28;20049;-60
2023/05/07 05:53:35;;;;;;;29.65;23.77;;;10.10;99.90;;;;;;5044498;28;20077;-59
2023/05/07 05:56:01;;;;;;;31.30;24.80;;;10.10;99.90;;;;;;5043818;28;20650;-51
2023/05/07 05:58:27;;;;;;;30.20;24.73;;;10.10;99.90;;;;;;5043994;28;20121;-57
2023/05/07 06:00:53;;;;;;;30.77;24.05;;;10.10;99.90;;;;;;5042222;28;20083;-53
2023/05/07 06:03:18;;;;;;;28.95;24.55;;;10.20;99.90;;;;;;5042384;28;20071;-52
2023/05/07 06:05:44;;;;;;;29.90;25.45;;;10.10;99.90;;;;;;5042990;28;20081;-53
2023/05/07 06:08:10;;;;;;;30.23;25.05;;;10.20;99.90;;;;;;5043720;28;20518;-58
2023/05/07 06:10:37;;;;;;;28.13;24.42;;;10.20;99.90;;;;;;5043733;28;20088;-57
2023/05/07 06:13:02;;;;;;;29.30;24.23;;;10.20;99.90;;;;;;5042390;28;20056;-58
2023/05/07 06:15:28;;;;;;;28.15;24.50;;;10.20;99.90;;;;;;5057357;28;20064;-58
2023/05/07 06:17:55;;;;;;;32.05;25.27;;;10.20;99.90;;;;;;5062085;28;20080;-55
2023/05/07 06:20:21;;;;;;;30.92;25.42;;;10.30;99.90;;;;;;5063243;28;20044;-54
2023/05/07 06:22:47;;;;;;;31.63;25.35;;;10.30;99.90;;;;;;5063054;28;20098;-50
2023/05/07 06:25:12;;;;;;;34.03;28.02;;;10.30;99.90;;;;;;5063034;28;20132;-54
2023/05/07 06:27:39;;;;;;;33.40;27.73;;;10.40;99.90;;;;;;5063942;28;20143;-56
2023/05/07 06:30:06;;;;;;;35.63;28.38;;;10.40;99.90;;;;;;5063659;28;20052;-55
2023/05/07 06:32:31;;;;;;;34.42;27.55;;;10.40;99.90;;;;;;5063989;28;20091;-57
2023/05/07 06:34:57;;;;;;;32.67;27.33;;;10.40;99.90;;;;;;5063563;28;20068;-52
2023/05/07 06:37:22;;;;;;;30.80;25.70;;;10.40;99.90;;;;;;5063759;28;20052;-56
2023/05/07 06:39:48;;;;;;;32.78;26.85;;;10.40;99.90;;;;;;5064247;28;20044;-55
2023/05/07 06:42:14;;;;;;;30.88;25.63;;;10.50;99.90;;;;;;5064439;28;20047;-54
2023/05/07 06:44:39;;;;;;;32.22;26.35;;;10.60;99.90;;;;;;5063231;28;20098;-54
2023/05/07 06:47:05;;;;;;;35.42;27.95;;;10.50;99.90;;;;;;5064087;28;20090;-58
2023/05/07 06:49:31;;;;;;;34.42;29.42;;;10.50;99.90;;;;;;5062384;28;20048;-57
2023/05/07 06:51:57;;;;;;;36.10;29.83;;;10.50;99.90;;;;;;5063845;28;20135;-54
2023/05/07 06:54:23;;;;;;;38.35;33.10;;;10.50;99.90;;;;;;5066123;28;20036;-55
2023/05/07 06:56:48;;;;;;;36.72;31.02;;;10.60;99.90;;;;;;5067318;28;20040;-52
2023/05/07 06:59:14;;;;;;;35.63;30.83;;;10.60;99.90;;;;;;5067666;28;20040;-54
2023/05/07 07:01:40;;;;;;;33.72;29.08;;;10.60;99.90;;;;;;5066766;28;20806;-56
2023/05/07 07:04:06;;;;;;;32.63;27.45;;;10.60;99.90;;;;;;5067706;28;20036;-51
2023/05/07 07:06:32;;;;;;;33.38;26.13;;;10.70;99.90;;;;;;5067276;28;20566;-58
2023/05/07 07:09:00;;;;;;;28.95;25.20;;;10.60;99.90;;;;;;5067666;28;20101;-56
2023/05/07 07:11:26;;;;;;;31.17;25.85;;;10.60;99.90;;;;;;5067089;28;20147;-56
2023/05/07 07:13:54;;;;;;;31.15;26.17;;;10.70;99.90;;;;;;5067045;28;20120;-59
2023/05/07 07:16:21;;;;;;;30.33;24.83;;;10.70;99.90;;;;;;5066636;28;20075;-59
2023/05/07 07:18:46;;;;;;;29.35;23.40;;;10.70;99.90;;;;;;5066752;28;20278;-56
2023/05/07 07:21:12;;;;;;;30.08;23.35;;;10.80;99.90;;;;;;5067389;28;20068;-58
2023/05/07 07:23:37;;;;;;;29.88;23.85;;;10.90;99.90;;;;;;5067262;28;20040;-54
2023/05/07 07:26:03;;;;;;;33.45;26.42;;;10.90;99.90;;;;;;5065661;28;20067;-56
2023/05/07 07:28:29;;;;;;;30.45;23.98;;;10.90;99.90;;;;;;5067066;28;20072;-60
2023/05/07 07:30:55;;;;;;;30.25;24.80;;;10.90;99.90;;;;;;5066723;28;20076;-59
2023/05/07 07:33:20;;;;;;;31.17;24.75;;;11.00;99.90;;;;;;5067033;28;20113;-60
2023/05/07 07:35:46;;;;;;;29.23;24.02;;;11.00;99.90;;;;;;5066699;28;20044;-59
2023/05/07 07:38:12;;;;;;;28.75;24.48;;;11.10;99.90;;;;;;5067034;28;20041;-55
2023/05/07 07:40:37;;;;;;;29.77;23.98;;;11.10;99.90;;;;;;5066648;28;20494;-54
2023/05/07 07:43:03;;;;;;;28.17;23.20;;;11.00;99.90;;;;;;5066982;28;20036;-54
2023/05/07 07:45:29;;;;;;;29.17;25.00;;;11.00;99.90;;;;;;5066616;28;20063;-59
2023/05/07 07:47:54;;;;;;;30.00;24.35;;;11.10;99.90;;;;;;5066821;28;20041;-59
2023/05/07 07:50:20;;;;;;;29.63;24.95;;;11.10;99.90;;;;;;5066713;28;20060;-56
2023/05/07 07:52:46;;;;;;;31.25;26.05;;;11.20;99.90;;;;;;5061450;28;20041;-60
2023/05/07 07:55:12;;;;;;;31.98;25.40;;;11.20;99.90;;;;;;5047244;28;20365;-56
2023/05/07 07:57:38;;;;;;;32.55;25.95;;;11.30;99.90;;;;;;5046547;28;20087;-52
2023/05/07 08:00:06;;;;;;;30.98;23.92;;;11.30;99.90;;;;;;5043290;28;20044;-56
2023/05/07 08:02:31;;;;;;;28.00;23.42;;;11.40;99.90;;;;;;5041963;28;20041;-57
2023/05/07 08:04:57;;;;;;;31.73;24.88;;;11.30;99.90;;;;;;5040708;28;20107;-55
2023/05/07 08:07:23;;;;;;;30.13;23.05;;;11.30;99.90;;;;;;5041482;28;20041;-53
2023/05/07 08:09:49;;;;;;;30.13;23.50;;;11.40;99.90;;;;;;5041733;28;20044;-58
2023/05/07 08:12:15;;;;;;;29.67;23.08;;;11.40;99.90;;;;;;5043195;28;20095;-59
2023/05/07 08:14:41;;;;;;;28.10;23.90;;;11.40;99.90;;;;;;5042422;28;20345;-52
2023/05/07 08:17:07;;;;;;;29.83;22.98;;;11.50;99.90;;;;;;5042763;28;20052;-57
2023/05/07 08:19:32;;;;;;;28.10;23.55;;;11.60;99.90;;;;;;5043010;28;20381;-60
2023/05/07 08:21:58;;;;;;;27.38;21.52;;;11.70;99.90;;;;;;5042302;28;20052;-53
2023/05/07 08:24:24;;;;;;;28.77;23.15;;;11.80;99.90;;;;;;5042237;28;20045;-57
2023/05/07 08:26:49;;;;;;;28.10;21.48;;;11.90;99.90;;;;;;5042984;28;20044;-59
2023/05/07 08:29:15;;;;;;;25.70;20.08;;;11.80;99.90;;;;;;5043371;28;20147;-57
2023/05/07 08:31:41;;;;;;;25.83;20.20;;;11.90;99.90;;;;;;5042428;28;20055;-56
2023/05/07 08:34:07;;;;;;;26.95;21.92;;;12.00;99.90;;;;;;5041858;28;20095;-60
2023/05/07 08:36:32;;;;;;;26.58;21.35;;;11.90;99.90;;;;;;5042444;28;20056;-58
2023/05/07 08:38:59;;;;;;;21.90;17.63;;;12.00;99.90;;;;;;5042674;28;20483;-54
2023/05/07 08:41:24;;;;;;;24.33;19.35;;;12.10;99.90;;;;;;5042487;28;20120;-57
2023/05/07 08:43:51;;;;;;;23.73;19.92;;;12.00;99.90;;;;;;5042721;28;20646;-59
2023/05/07 08:46:21;;;;;;;24.95;19.98;;;12.10;99.90;;;;;;5041904;28;20049;-58
2023/05/07 08:48:50;;;;;;;23.77;19.10;;;12.10;99.90;;;;;;5042641;28;20067;-55
2023/05/07 08:51:18;;;;;;;24.00;20.00;;;12.10;99.90;;;;;;5042644;28;20399;-54
2023/05/07 08:53:44;;;;;;;26.10;21.00;;;12.10;99.90;;;;;;5042713;28;20040;-55
2023/05/07 08:56:11;;;;;;;25.90;20.27;;;12.10;99.90;;;;;;5042117;28;20396;-61
2023/05/07 08:58:37;;;;;;;23.60;19.90;;;12.10;99.90;;;;;;5041047;28;20053;-59
2023/05/07 09:01:14;;;;;;;23.80;19.63;;;12.10;99.90;;;;;;5041235;28;20581;-52
2023/05/07 09:03:40;;;;;;;26.02;19.00;;;12.20;99.90;;;;;;5041694;28;20045;-59
2023/05/07 09:06:06;;;;;;;24.73;18.92;;;12.20;99.90;;;;;;5041097;28;20482;-54
2023/05/07 09:08:35;;;;;;;23.27;18.92;;;12.30;99.90;;;;;;5042407;28;20043;-57
2023/05/07 09:11:02;;;;;;;23.63;18.85;;;12.40;99.90;;;;;;5042350;28;20040;-58
2023/05/07 09:13:28;;;;;;;21.90;17.15;;;12.50;99.90;;;;;;5041036;28;20043;-54
2023/05/07 09:15:54;;;;;;;21.45;18.40;;;12.50;99.90;;;;;;5040026;28;20048;-55
2023/05/07 09:18:20;;;;;;;20.33;16.80;;;12.60;99.90;;;;;;5041859;28;20049;-57
2023/05/07 09:20:46;;;;;;;22.42;18.27;;;12.70;99.90;;;;;;5041633;28;20037;-60
2023/05/07 09:23:11;;;;;;;20.23;16.98;;;12.80;99.90;;;;;;5041625;28;20123;-60
2023/05/07 09:25:37;;;;;;;19.48;16.00;;;12.90;99.90;;;;;;5040250;28;20048;-54
2023/05/07 09:28:07;;;;;;;20.02;17.60;;;13.00;99.90;;;;;;5041626;28;20487;-60
2023/05/07 09:30:33;;;;;;;21.45;18.15;;;13.00;99.90;;;;;;5040107;28;20106;-51
2023/05/07 09:33:01;;;;;;;20.92;17.42;;;13.10;99.90;;;;;;5041031;28;20131;-58
2023/05/07 09:35:27;;;;;;;21.00;16.42;;;13.10;99.90;;;;;;5040297;28;20060;-55
2023/05/07 09:37:54;;;;;;;18.90;15.18;;;13.20;99.90;;;;;;5041250;28;20438;-59
2023/05/07 09:40:28;;;;;;;22.27;15.98;;;13.20;99.90;;;;;;5041592;28;20041;-57
2023/05/07 09:42:54;;;;;;;19.17;16.45;;;13.20;99.90;;;;;;5041769;28;20037;-58
2023/05/07 09:45:28;;;;;;;20.80;16.55;;;13.30;99.90;;;;;;5039543;28;20072;-55
2023/05/07 09:47:58;;;;;;;21.25;17.00;;;13.30;99.90;;;;;;5041212;28;20372;-58
2023/05/07 09:50:28;;;;;;;17.33;15.40;;;13.40;99.90;;;;;;5040811;28;20499;-52
2023/05/07 09:52:55;;;;;;;19.10;14.98;;;13.50;99.90;;;;;;5038839;28;20045;-58
2023/05/07 09:55:21;;;;;;;18.02;15.38;;;13.50;99.90;;;;;;5040568;28;20037;-53
2023/05/07 09:57:51;;;;;;;16.58;13.25;;;13.60;99.90;;;;;;5041621;28;20408;-56
2023/05/07 10:00:19;;;;;;;16.73;14.88;;;13.90;99.90;;;;;;5039983;28;20307;-54
2023/05/07 10:02:51;;;;;;;16.73;10.10;;;14.00;99.90;;;;;;5041174;28;20282;-55
2023/05/07 10:05:20;;;;;;;15.52;13.77;;;14.10;99.90;;;;;;5040116;28;20041;-55
2023/05/07 10:07:46;;;;;;;16.63;14.82;;;14.20;99.90;;;;;;5038839;28;20040;-47
2023/05/07 10:10:12;;;;;;;16.15;13.85;;;14.30;99.90;;;;;;5038552;28;20285;-58
2023/05/07 10:12:40;;;;;;;17.45;13.55;;;14.60;99.90;;;;;;5040402;28;20393;-55
2023/05/07 10:15:10;;;;;;;15.90;13.85;;;14.90;99.90;;;;;;5039110;28;20192;-54
2023/05/07 10:17:40;;;;;;;16.80;12.43;;;15.00;99.90;;;;;;5040800;28;20043;-58
2023/05/07 10:20:07;;;;;;;15.98;13.50;;;15.00;99.90;;;;;;5040475;28;20055;-58
2023/05/07 10:22:47;;;;;;;15.40;13.10;;;15.10;99.90;;;;;;5039838;28;20041;-58
2023/05/07 10:25:17;;;;;;;15.27;12.70;;;15.10;99.90;;;;;;5040784;28;20040;-56
2023/05/07 10:27:44;;;;;;;15.35;13.15;;;15.00;99.90;;;;;;5040772;28;20127;-58
2023/05/07 10:30:34;;;;;;;15.50;12.55;;;14.90;99.90;;;;;;5039622;28;20457;-55
2023/05/07 10:33:05;;;;;;;14.43;11.85;;;15.00;99.90;;;;;;5040373;28;20071;-57
2023/05/07 10:35:37;;;;;;;14.40;12.15;;;15.20;99.90;;;;;;5040607;28;20450;-57
2023/05/07 10:38:04;;;;;;;13.98;11.43;;;15.20;99.90;;;;;;5040765;28;20248;-54
2023/05/07 10:40:31;;;;;;;14.98;11.82;;;15.30;99.90;;;;;;5040835;28;20049;-54
2023/05/07 10:43:07;;;;;;;16.15;12.40;;;15.20;99.90;;;;;;5040180;28;20051;-54
2023/05/07 10:45:33;;;;;;;15.10;11.88;;;15.20;99.90;;;;;;5039749;28;20049;-58
2023/05/07 10:48:13;;;;;;;13.57;10.05;;;15.40;99.90;;;;;;5039039;28;20507;-52
2023/05/07 10:50:43;;;;;;;15.15;11.30;;;15.40;99.90;;;;;;5039938;28;20581;-54
2023/05/07 10:53:17;;;;;;;15.82;12.48;;;15.40;99.90;;;;;;5043283;28;20061;-55
2023/05/07 10:56:18;;;;;;;15.13;12.68;;;15.40;99.90;;;;;;5039818;28;20139;-60
2023/05/07 10:58:44;;;;;;;13.95;12.02;;;15.50;99.90;;;;;;5039429;28;20045;-59
2023/05/07 11:01:12;;;;;;;14.23;12.35;;;15.50;99.90;;;;;;5039985;28;20044;-60
2023/05/07 11:04:13;;;;;;;15.27;12.68;;;15.30;99.90;;;;;;5040180;28;20049;-56
2023/05/07 11:06:40;;;;;;;16.30;12.40;;;15.40;99.90;;;;;;5040581;28;20060;-61
2023/05/07 11:09:05;;;;;;;14.38;12.50;;;15.40;99.90;;;;;;5040462;28;20132;-60
2023/05/07 11:11:48;;;;;;;14.80;11.10;;;15.60;99.90;;;;;;5039981;28;20179;-54
2023/05/07 11:14:14;;;;;;;14.32;12.57;;;15.40;99.90;;;;;;5039609;28;20056;-49
2023/05/07 11:16:41;;;;;;;14.25;12.45;;;15.50;99.90;;;;;;5040069;28;20041;-57
2023/05/07 11:19:07;;;;;;;16.08;13.68;;;15.50;99.90;;;;;;5040453;28;20676;-56
2023/05/07 11:21:41;;;;;;;17.90;13.35;;;15.60;99.90;;;;;;5038983;28;20033;-58
2023/05/07 11:24:08;;;;;;;16.15;13.52;;;15.80;99.90;;;;;;5039487;28;20225;-55
2023/05/07 11:26:47;;;;;;;18.85;15.18;;;16.00;99.90;;;;;;5040206;28;20049;-56
2023/05/07 11:29:15;;;;;;;21.05;15.57;;;16.10;99.90;;;;;;5039521;28;20048;-60
2023/05/07 11:31:40;;;;;;;16.60;14.82;;;16.00;99.90;;;;;;5039377;28;20045;-58
2023/05/07 11:34:07;;;;;;;17.42;14.25;;;15.90;99.90;;;;;;5040306;28;20055;-60
2023/05/07 11:36:33;;;;;;;17.17;14.82;;;15.90;99.90;;;;;;5039966;28;20396;-58
2023/05/07 11:38:59;;;;;;;16.30;13.13;;;15.90;99.90;;;;;;5040816;28;20332;-51
2023/05/07 11:41:36;;;;;;;15.20;13.60;;;15.90;99.90;;;;;;5043655;28;20188;-57
2023/05/07 11:44:01;;;;;;;16.20;14.25;;;15.90;99.90;;;;;;5043043;28;20408;-57
2023/05/07 11:46:28;;;;;;;17.05;14.75;;;16.00;99.90;;;;;;5043239;28;20045;-53
2023/05/07 11:48:54;;;;;;;14.70;12.07;;;16.10;99.90;;;;;;5044052;28;20044;-60
2023/05/07 11:51:22;;;;;;;16.20;14.02;;;16.20;99.90;;;;;;5043389;28;20494;-56
2023/05/07 11:53:49;;;;;;;16.45;14.07;;;16.20;99.90;;;;;;5042938;28;20304;-57
2023/05/07 11:56:16;;;;;;;15.18;13.60;;;16.20;99.90;;;;;;5043428;28;20424;-58
2023/05/07 11:58:43;;;;;;;15.35;13.05;;;16.30;99.90;;;;;;5042933;28;20343;-55
2023/05/07 12:01:10;;;;;;;16.08;13.02;;;16.40;99.90;;;;;;5043585;28;20041;-59
2023/05/07 12:03:42;;;;;;;13.88;12.38;;;16.50;99.90;;;;;;5042902;28;20049;-56
2023/05/07 12:06:08;;;;;;;13.98;12.48;;;16.60;99.90;;;;;;5043023;28;20049;-57
2023/05/07 12:08:37;;;;;;;14.25;12.68;;;16.80;99.90;;;;;;5043038;28;20056;-58
2023/05/07 12:11:06;;;;;;;14.25;12.75;;;16.90;99.90;;;;;;5043189;28;20044;-58
2023/05/07 12:13:32;;;;;;;14.38;12.88;;;16.90;99.90;;;;;;5043419;28;20141;-57
2023/05/07 12:15:58;;;;;;;15.23;13.63;;;16.90;99.90;;;;;;5042166;28;20111;-59
2023/05/07 12:18:24;;;;;;;14.25;11.93;;;17.10;99.90;;;;;;5042376;28;20349;-52
2023/05/07 12:20:50;;;;;;;14.63;13.13;;;17.30;99.90;;;;;;5043172;28;20358;-55
2023/05/07 12:23:16;;;;;;;16.05;12.90;;;17.30;99.90;;;;;;5042078;28;20191;-55
2023/05/07 12:25:47;;;;;;;12.95;11.60;;;17.30;99.90;;;;;;5042527;28;20132;-55
2023/05/07 12:28:15;;;;;;;16.85;13.00;;;17.20;99.90;;;;;;5041718;28;20096;-55